UUOO/VOZ METAR and TAF weather

Enter ICAO airport designator
Station Type Date Time Source
UUOO METAR 2022/01/26 14:00 UTC NOAA

UUOO 261400Z 25001MPS 9000 -SN BKN005 M10/M11 Q1015 R30/490240 NOSIG RMK QFE747


Station Type Date Time Source
UUOO Decoded METAR 2022/01/26 14:00 UTC NOAA

Voronez, Russia (UUOO) 51-39N 039-15E 104M
Jan 26, 2022 - 09:00 AM EST / 2022.01.26 1400 UTC
Wind: from the WSW (250 degrees) at 2 MPH (2 KT):0
Visibility: 5 mile(s):0
Sky conditions: mostly cloudy
Weather: light snow
Temperature: 14 F (-10 C)
Dew Point: 12 F (-11 C)
Relative Humidity: 92%
Pressure (altimeter): 29.97 in. Hg (1015 hPa)
ob: UUOO 261400Z 25001MPS 9000 -SN BKN005 M10/M11 Q1015 R30/490240 NOSIG RMK QFE747
cycle: 14

Station Type Date Time Source
UUOO TAF 2019/08/12 03:33 UTC NOAA

TAF COR TAF COR UUOO 120159 1203/1212 31003MPS CAVOK

Example: see airport list